sensor_id;sensor_type;location;lat;lon;timestamp;P1;durP1;ratioP1;P2;durP2;ratioP2
18378;SDS011;27025;51.986;5.984;2023-08-08T00:01:06;9.93;;;5.40;;
18378;SDS011;27025;51.986;5.984;2023-08-08T00:03:33;10.70;;;6.20;;
18378;SDS011;27025;51.986;5.984;2023-08-08T00:05:59;11.63;;;5.90;;
18378;SDS011;27025;51.986;5.984;2023-08-08T00:08:25;10.30;;;6.17;;
18378;SDS011;27025;51.986;5.984;2023-08-08T00:10:51;10.97;;;6.00;;
18378;SDS011;27025;51.986;5.984;2023-08-08T00:13:17;11.80;;;6.27;;
18378;SDS011;27025;51.986;5.984;2023-08-08T00:15:43;13.03;;;6.13;;
18378;SDS011;27025;51.986;5.984;2023-08-08T00:18:09;7.30;;;5.93;;
18378;SDS011;27025;51.986;5.984;2023-08-08T00:20:35;9.00;;;6.57;;
18378;SDS011;27025;51.986;5.984;2023-08-08T00:23:01;12.17;;;6.53;;
18378;SDS011;27025;51.986;5.984;2023-08-08T00:25:27;14.23;;;6.63;;
18378;SDS011;27025;51.986;5.984;2023-08-08T00:27:53;9.23;;;6.70;;
18378;SDS011;27025;51.986;5.984;2023-08-08T00:30:19;10.80;;;6.90;;
18378;SDS011;27025;51.986;5.984;2023-08-08T00:32:45;9.53;;;6.93;;
18378;SDS011;27025;51.986;5.984;2023-08-08T00:35:12;12.20;;;7.20;;
18378;SDS011;27025;51.986;5.984;2023-08-08T00:37:38;13.97;;;7.03;;
18378;SDS011;27025;51.986;5.984;2023-08-08T00:40:04;8.37;;;6.83;;
18378;SDS011;27025;51.986;5.984;2023-08-08T00:42:30;17.00;;;7.53;;
18378;SDS011;27025;51.986;5.984;2023-08-08T00:44:56;11.23;;;6.87;;
18378;SDS011;27025;51.986;5.984;2023-08-08T00:47:29;11.43;;;6.53;;
18378;SDS011;27025;51.986;5.984;2023-08-08T00:49:55;16.43;;;7.10;;
18378;SDS011;27025;51.986;5.984;2023-08-08T00:52:22;13.53;;;7.40;;
18378;SDS011;27025;51.986;5.984;2023-08-08T00:54:48;12.07;;;7.10;;
18378;SDS011;27025;51.986;5.984;2023-08-08T00:57:14;9.67;;;6.90;;
18378;SDS011;27025;51.986;5.984;2023-08-08T00:59:40;12.73;;;7.00;;
18378;SDS011;27025;51.986;5.984;2023-08-08T01:02:06;13.97;;;6.97;;
18378;SDS011;27025;51.986;5.984;2023-08-08T01:04:32;9.73;;;7.03;;
18378;SDS011;27025;51.986;5.984;2023-08-08T01:09:38;9.67;;;6.93;;
18378;SDS011;27025;51.986;5.984;2023-08-08T01:12:06;12.63;;;6.57;;
18378;SDS011;27025;51.986;5.984;2023-08-08T01:14:33;10.90;;;6.87;;
18378;SDS011;27025;51.986;5.984;2023-08-08T01:17:00;11.27;;;6.50;;
18378;SDS011;27025;51.986;5.984;2023-08-08T01:19:27;11.67;;;7.30;;
18378;SDS011;27025;51.986;5.984;2023-08-08T01:21:54;12.83;;;6.60;;
18378;SDS011;27025;51.986;5.984;2023-08-08T01:24:23;13.33;;;6.73;;
18378;SDS011;27025;51.986;5.984;2023-08-08T01:26:54;11.67;;;7.03;;
18378;SDS011;27025;51.986;5.984;2023-08-08T01:29:21;10.70;;;6.80;;
18378;SDS011;27025;51.986;5.984;2023-08-08T01:31:47;15.73;;;7.60;;
18378;SDS011;27025;51.986;5.984;2023-08-08T01:34:13;13.33;;;7.33;;
18378;SDS011;27025;51.986;5.984;2023-08-08T01:36:56;13.50;;;7.37;;
18378;SDS011;27025;51.986;5.984;2023-08-08T01:39:25;12.47;;;7.20;;
18378;SDS011;27025;51.986;5.984;2023-08-08T01:41:51;17.70;;;7.40;;
18378;SDS011;27025;51.986;5.984;2023-08-08T01:44:18;11.20;;;6.80;;
18378;SDS011;27025;51.986;5.984;2023-08-08T01:46:45;12.03;;;7.07;;
18378;SDS011;27025;51.986;5.984;2023-08-08T01:49:11;14.17;;;7.23;;
18378;SDS011;27025;51.986;5.984;2023-08-08T01:51:37;12.17;;;6.93;;
18378;SDS011;27025;51.986;5.984;2023-08-08T01:54:03;12.77;;;7.70;;
18378;SDS011;27025;51.986;5.984;2023-08-08T01:56:29;14.13;;;7.47;;
18378;SDS011;27025;51.986;5.984;2023-08-08T01:58:55;10.93;;;6.73;;
18378;SDS011;27025;51.986;5.984;2023-08-08T02:01:21;13.43;;;7.57;;
18378;SDS011;27025;51.986;5.984;2023-08-08T02:03:47;16.00;;;7.00;;
18378;SDS011;27025;51.986;5.984;2023-08-08T02:06:13;17.80;;;7.47;;
18378;SDS011;27025;51.986;5.984;2023-08-08T02:08:40;17.27;;;7.23;;
18378;SDS011;27025;51.986;5.984;2023-08-08T02:11:06;11.87;;;7.10;;
18378;SDS011;27025;51.986;5.984;2023-08-08T02:13:32;16.77;;;6.50;;
18378;SDS011;27025;51.986;5.984;2023-08-08T02:15:58;17.73;;;6.80;;
18378;SDS011;27025;51.986;5.984;2023-08-08T02:18:24;16.13;;;6.83;;
18378;SDS011;27025;51.986;5.984;2023-08-08T02:20:50;16.17;;;7.03;;
18378;SDS011;27025;51.986;5.984;2023-08-08T02:23:16;16.87;;;7.07;;
18378;SDS011;27025;51.986;5.984;2023-08-08T02:25:43;11.80;;;6.50;;
18378;SDS011;27025;51.986;5.984;2023-08-08T02:28:09;14.17;;;6.90;;
18378;SDS011;27025;51.986;5.984;2023-08-08T02:30:35;15.00;;;6.97;;
18378;SDS011;27025;51.986;5.984;2023-08-08T02:33:01;14.63;;;7.10;;
18378;SDS011;27025;51.986;5.984;2023-08-08T02:35:27;14.13;;;6.77;;
18378;SDS011;27025;51.986;5.984;2023-08-08T02:37:54;14.43;;;6.90;;
18378;SDS011;27025;51.986;5.984;2023-08-08T02:40:20;14.13;;;6.30;;
18378;SDS011;27025;51.986;5.984;2023-08-08T02:42:48;13.40;;;6.53;;
18378;SDS011;27025;51.986;5.984;2023-08-08T02:45:14;12.63;;;6.13;;
18378;SDS011;27025;51.986;5.984;2023-08-08T02:47:40;13.20;;;5.80;;
18378;SDS011;27025;51.986;5.984;2023-08-08T02:50:06;10.97;;;6.23;;
18378;SDS011;27025;51.986;5.984;2023-08-08T02:52:32;12.60;;;6.07;;
18378;SDS011;27025;51.986;5.984;2023-08-08T02:54:58;10.60;;;6.23;;
18378;SDS011;27025;51.986;5.984;2023-08-08T02:57:24;13.40;;;5.97;;
18378;SDS011;27025;51.986;5.984;2023-08-08T02:59:51;12.47;;;6.10;;
18378;SDS011;27025;51.986;5.984;2023-08-08T03:02:17;11.30;;;5.80;;
18378;SDS011;27025;51.986;5.984;2023-08-08T03:04:43;10.53;;;6.23;;
18378;SDS011;27025;51.986;5.984;2023-08-08T03:07:09;13.37;;;6.37;;
18378;SDS011;27025;51.986;5.984;2023-08-08T03:09:35;10.53;;;5.67;;
18378;SDS011;27025;51.986;5.984;2023-08-08T03:12:01;10.77;;;5.90;;
18378;SDS011;27025;51.986;5.984;2023-08-08T03:14:27;10.17;;;5.87;;
18378;SDS011;27025;51.986;5.984;2023-08-08T03:16:53;13.47;;;6.17;;
18378;SDS011;27025;51.986;5.984;2023-08-08T03:19:19;13.27;;;6.27;;
18378;SDS011;27025;51.986;5.984;2023-08-08T03:21:45;11.93;;;6.33;;
18378;SDS011;27025;51.986;5.984;2023-08-08T03:24:11;11.90;;;6.50;;
18378;SDS011;27025;51.986;5.984;2023-08-08T03:26:37;17.70;;;7.10;;
18378;SDS011;27025;51.986;5.984;2023-08-08T03:29:03;14.63;;;7.43;;
18378;SDS011;27025;51.986;5.984;2023-08-08T03:31:29;14.53;;;7.17;;
18378;SDS011;27025;51.986;5.984;2023-08-08T03:33:55;15.37;;;7.47;;
18378;SDS011;27025;51.986;5.984;2023-08-08T03:36:21;13.23;;;7.47;;
18378;SDS011;27025;51.986;5.984;2023-08-08T03:38:47;13.77;;;7.90;;
18378;SDS011;27025;51.986;5.984;2023-08-08T03:41:13;15.73;;;7.87;;
18378;SDS011;27025;51.986;5.984;2023-08-08T03:43:39;16.67;;;8.30;;
18378;SDS011;27025;51.986;5.984;2023-08-08T03:46:06;17.23;;;8.93;;
18378;SDS011;27025;51.986;5.984;2023-08-08T03:48:32;17.43;;;9.20;;
18378;SDS011;27025;51.986;5.984;2023-08-08T03:50:58;22.50;;;9.10;;
18378;SDS011;27025;51.986;5.984;2023-08-08T03:53:24;15.33;;;8.67;;
18378;SDS011;27025;51.986;5.984;2023-08-08T03:55:50;21.13;;;9.37;;
18378;SDS011;27025;51.986;5.984;2023-08-08T03:58:16;19.10;;;8.73;;
18378;SDS011;27025;51.986;5.984;2023-08-08T04:00:42;20.17;;;9.27;;
18378;SDS011;27025;51.986;5.984;2023-08-08T04:03:12;17.47;;;9.40;;
18378;SDS011;27025;51.986;5.984;2023-08-08T04:05:38;19.63;;;9.30;;
18378;SDS011;27025;51.986;5.984;2023-08-08T04:08:04;18.87;;;9.30;;
18378;SDS011;27025;51.986;5.984;2023-08-08T04:10:30;19.80;;;9.33;;
18378;SDS011;27025;51.986;5.984;2023-08-08T04:12:56;19.70;;;9.83;;
18378;SDS011;27025;51.986;5.984;2023-08-08T04:15:22;20.07;;;9.73;;
18378;SDS011;27025;51.986;5.984;2023-08-08T04:17:48;19.60;;;9.63;;
18378;SDS011;27025;51.986;5.984;2023-08-08T04:20:14;21.60;;;9.73;;
18378;SDS011;27025;51.986;5.984;2023-08-08T04:22:40;15.27;;;9.10;;
18378;SDS011;27025;51.986;5.984;2023-08-08T04:25:06;18.23;;;9.43;;
18378;SDS011;27025;51.986;5.984;2023-08-08T04:27:33;21.00;;;10.13;;
18378;SDS011;27025;51.986;5.984;2023-08-08T04:29:59;21.90;;;10.23;;
18378;SDS011;27025;51.986;5.984;2023-08-08T04:32:25;16.60;;;9.43;;
18378;SDS011;27025;51.986;5.984;2023-08-08T04:34:51;25.37;;;10.03;;
18378;SDS011;27025;51.986;5.984;2023-08-08T04:37:17;20.37;;;9.53;;
18378;SDS011;27025;51.986;5.984;2023-08-08T04:39:43;21.23;;;10.00;;
18378;SDS011;27025;51.986;5.984;2023-08-08T04:42:09;21.43;;;10.20;;
18378;SDS011;27025;51.986;5.984;2023-08-08T04:44:35;24.70;;;10.20;;
18378;SDS011;27025;51.986;5.984;2023-08-08T04:47:01;19.67;;;10.07;;
18378;SDS011;27025;51.986;5.984;2023-08-08T04:49:30;21.40;;;10.37;;
18378;SDS011;27025;51.986;5.984;2023-08-08T04:51:56;20.50;;;10.30;;
18378;SDS011;27025;51.986;5.984;2023-08-08T04:54:22;22.07;;;10.73;;
18378;SDS011;27025;51.986;5.984;2023-08-08T04:56:48;23.80;;;10.17;;
18378;SDS011;27025;51.986;5.984;2023-08-08T04:59:14;18.87;;;9.80;;
18378;SDS011;27025;51.986;5.984;2023-08-08T05:01:40;24.23;;;10.93;;
18378;SDS011;27025;51.986;5.984;2023-08-08T05:04:06;25.67;;;10.90;;
18378;SDS011;27025;51.986;5.984;2023-08-08T05:06:32;20.03;;;10.93;;
18378;SDS011;27025;51.986;5.984;2023-08-08T05:08:58;18.03;;;8.83;;
18378;SDS011;27025;51.986;5.984;2023-08-08T05:11:24;17.10;;;10.23;;
18378;SDS011;27025;51.986;5.984;2023-08-08T05:13:50;23.47;;;10.63;;
18378;SDS011;27025;51.986;5.984;2023-08-08T05:16:16;17.63;;;11.23;;
18378;SDS011;27025;51.986;5.984;2023-08-08T05:18:42;18.63;;;10.80;;
18378;SDS011;27025;51.986;5.984;2023-08-08T05:21:10;24.00;;;11.67;;
18378;SDS011;27025;51.986;5.984;2023-08-08T05:23:36;18.53;;;10.67;;
18378;SDS011;27025;51.986;5.984;2023-08-08T05:26:02;24.07;;;11.83;;
18378;SDS011;27025;51.986;5.984;2023-08-08T05:28:29;22.33;;;11.23;;
18378;SDS011;27025;51.986;5.984;2023-08-08T05:30:55;22.20;;;11.03;;
18378;SDS011;27025;51.986;5.984;2023-08-08T05:33:21;21.40;;;11.17;;
18378;SDS011;27025;51.986;5.984;2023-08-08T05:35:47;20.30;;;11.53;;
18378;SDS011;27025;51.986;5.984;2023-08-08T05:38:14;20.40;;;11.23;;
18378;SDS011;27025;51.986;5.984;2023-08-08T05:40:40;20.60;;;10.83;;
18378;SDS011;27025;51.986;5.984;2023-08-08T05:43:06;20.60;;;11.10;;
18378;SDS011;27025;51.986;5.984;2023-08-08T05:45:33;19.10;;;11.07;;
18378;SDS011;27025;51.986;5.984;2023-08-08T05:47:59;18.10;;;10.17;;
18378;SDS011;27025;51.986;5.984;2023-08-08T05:50:26;25.53;;;11.57;;
18378;SDS011;27025;51.986;5.984;2023-08-08T05:52:53;18.13;;;10.27;;
18378;SDS011;27025;51.986;5.984;2023-08-08T05:55:19;20.13;;;10.63;;
18378;SDS011;27025;51.986;5.984;2023-08-08T05:57:45;18.50;;;10.50;;
18378;SDS011;27025;51.986;5.984;2023-08-08T06:00:11;17.57;;;9.57;;
18378;SDS011;27025;51.986;5.984;2023-08-08T06:02:37;19.23;;;10.33;;
18378;SDS011;27025;51.986;5.984;2023-08-08T06:05:04;24.13;;;10.23;;
18378;SDS011;27025;51.986;5.984;2023-08-08T06:07:30;21.73;;;9.50;;
18378;SDS011;27025;51.986;5.984;2023-08-08T06:09:56;16.73;;;9.57;;
18378;SDS011;27025;51.986;5.984;2023-08-08T06:12:22;21.53;;;9.87;;
18378;SDS011;27025;51.986;5.984;2023-08-08T06:14:48;21.03;;;9.70;;
18378;SDS011;27025;51.986;5.984;2023-08-08T06:17:14;17.90;;;8.97;;
18378;SDS011;27025;51.986;5.984;2023-08-08T06:19:43;16.03;;;8.87;;
18378;SDS011;27025;51.986;5.984;2023-08-08T06:22:10;17.27;;;9.00;;
18378;SDS011;27025;51.986;5.984;2023-08-08T06:24:36;16.27;;;8.73;;
18378;SDS011;27025;51.986;5.984;2023-08-08T06:27:02;19.07;;;8.50;;
18378;SDS011;27025;51.986;5.984;2023-08-08T06:29:28;18.53;;;8.53;;
18378;SDS011;27025;51.986;5.984;2023-08-08T06:31:55;13.23;;;8.00;;
18378;SDS011;27025;51.986;5.984;2023-08-08T06:34:21;16.03;;;7.90;;
18378;SDS011;27025;51.986;5.984;2023-08-08T06:36:47;16.83;;;8.60;;
18378;SDS011;27025;51.986;5.984;2023-08-08T06:39:13;13.03;;;7.13;;
18378;SDS011;27025;51.986;5.984;2023-08-08T06:41:40;16.63;;;7.00;;
18378;SDS011;27025;51.986;5.984;2023-08-08T06:44:07;19.07;;;7.60;;
18378;SDS011;27025;51.986;5.984;2023-08-08T06:46:33;13.20;;;6.70;;
18378;SDS011;27025;51.986;5.984;2023-08-08T06:48:59;13.43;;;6.43;;
18378;SDS011;27025;51.986;5.984;2023-08-08T06:51:26;17.27;;;6.73;;
18378;SDS011;27025;51.986;5.984;2023-08-08T06:53:52;15.30;;;6.80;;
18378;SDS011;27025;51.986;5.984;2023-08-08T06:56:18;13.40;;;6.27;;
18378;SDS011;27025;51.986;5.984;2023-08-08T06:58:44;12.67;;;6.30;;
18378;SDS011;27025;51.986;5.984;2023-08-08T07:01:10;10.83;;;5.70;;
18378;SDS011;27025;51.986;5.984;2023-08-08T07:03:37;11.23;;;6.00;;
18378;SDS011;27025;51.986;5.984;2023-08-08T07:06:03;12.23;;;5.37;;
18378;SDS011;27025;51.986;5.984;2023-08-08T07:08:29;12.67;;;5.30;;
18378;SDS011;27025;51.986;5.984;2023-08-08T07:10:56;12.40;;;5.17;;
18378;SDS011;27025;51.986;5.984;2023-08-08T07:13:23;9.10;;;5.23;;
18378;SDS011;27025;51.986;5.984;2023-08-08T07:15:49;10.67;;;4.90;;
18378;SDS011;27025;51.986;5.984;2023-08-08T07:18:15;9.70;;;4.73;;
18378;SDS011;27025;51.986;5.984;2023-08-08T07:20:41;7.83;;;4.30;;
18378;SDS011;27025;51.986;5.984;2023-08-08T07:23:07;11.03;;;4.40;;
18378;SDS011;27025;51.986;5.984;2023-08-08T07:25:34;10.43;;;4.03;;
18378;SDS011;27025;51.986;5.984;2023-08-08T07:28:00;12.53;;;3.77;;
18378;SDS011;27025;51.986;5.984;2023-08-08T07:30:26;11.20;;;3.83;;
18378;SDS011;27025;51.986;5.984;2023-08-08T07:32:52;9.67;;;2.87;;
18378;SDS011;27025;51.986;5.984;2023-08-08T07:35:18;6.20;;;2.80;;
18378;SDS011;27025;51.986;5.984;2023-08-08T07:37:44;5.97;;;2.50;;
18378;SDS011;27025;51.986;5.984;2023-08-08T07:40:20;7.43;;;2.40;;
18378;SDS011;27025;51.986;5.984;2023-08-08T07:42:47;5.77;;;1.97;;
18378;SDS011;27025;51.986;5.984;2023-08-08T07:45:13;3.33;;;1.83;;
18378;SDS011;27025;51.986;5.984;2023-08-08T07:47:39;7.93;;;1.87;;
18378;SDS011;27025;51.986;5.984;2023-08-08T07:50:06;6.80;;;2.00;;
18378;SDS011;27025;51.986;5.984;2023-08-08T07:52:33;5.53;;;1.70;;
18378;SDS011;27025;51.986;5.984;2023-08-08T07:55:00;3.93;;;1.73;;
18378;SDS011;27025;51.986;5.984;2023-08-08T07:57:29;5.20;;;1.60;;
18378;SDS011;27025;51.986;5.984;2023-08-08T08:00:04;5.30;;;1.67;;
18378;SDS011;27025;51.986;5.984;2023-08-08T08:02:36;4.10;;;1.70;;
18378;SDS011;27025;51.986;5.984;2023-08-08T08:05:02;6.07;;;1.83;;
18378;SDS011;27025;51.986;5.984;2023-08-08T08:07:33;5.25;;;1.90;;
18378;SDS011;27025;51.986;5.984;2023-08-08T08:09:59;4.72;;;1.95;;
18378;SDS011;27025;51.986;5.984;2023-08-08T08:12:25;4.60;;;1.90;;
18378;SDS011;27025;51.986;5.984;2023-08-08T08:14:51;5.00;;;1.60;;
18378;SDS011;27025;51.986;5.984;2023-08-08T08:17:17;6.35;;;1.70;;
18378;SDS011;27025;51.986;5.984;2023-08-08T08:19:43;3.70;;;1.67;;
18378;SDS011;27025;51.986;5.984;2023-08-08T08:22:09;6.03;;;1.75;;
18378;SDS011;27025;51.986;5.984;2023-08-08T08:24:35;4.05;;;1.30;;
18378;SDS011;27025;51.986;5.984;2023-08-08T08:27:01;4.03;;;1.60;;
18378;SDS011;27025;51.986;5.984;2023-08-08T08:29:27;3.80;;;1.58;;
18378;SDS011;27025;51.986;5.984;2023-08-08T08:31:53;4.35;;;1.50;;
18378;SDS011;27025;51.986;5.984;2023-08-08T08:34:19;3.55;;;1.50;;
18378;SDS011;27025;51.986;5.984;2023-08-08T08:36:45;4.07;;;1.50;;
18378;SDS011;27025;51.986;5.984;2023-08-08T08:39:11;4.30;;;1.45;;
18378;SDS011;27025;51.986;5.984;2023-08-08T08:41:37;2.63;;;1.60;;
18378;SDS011;27025;51.986;5.984;2023-08-08T08:44:03;5.22;;;1.50;;
18378;SDS011;27025;51.986;5.984;2023-08-08T08:46:31;4.57;;;1.40;;
18378;SDS011;27025;51.986;5.984;2023-08-08T08:48:58;4.35;;;1.50;;
18378;SDS011;27025;51.986;5.984;2023-08-08T08:51:25;3.10;;;1.40;;
18378;SDS011;27025;51.986;5.984;2023-08-08T08:53:51;4.28;;;1.40;;
18378;SDS011;27025;51.986;5.984;2023-08-08T08:56:17;3.28;;;1.25;;
18378;SDS011;27025;51.986;5.984;2023-08-08T08:58:44;4.83;;;1.47;;
18378;SDS011;27025;51.986;5.984;2023-08-08T09:01:10;4.22;;;1.38;;
18378;SDS011;27025;51.986;5.984;2023-08-08T09:03:37;2.73;;;1.27;;
18378;SDS011;27025;51.986;5.984;2023-08-08T09:06:03;3.70;;;1.30;;
18378;SDS011;27025;51.986;5.984;2023-08-08T09:08:30;3.20;;;1.47;;
18378;SDS011;27025;51.986;5.984;2023-08-08T09:10:56;4.10;;;1.50;;
18378;SDS011;27025;51.986;5.984;2023-08-08T09:13:23;3.22;;;1.40;;
18378;SDS011;27025;51.986;5.984;2023-08-08T09:15:51;3.00;;;1.40;;
18378;SDS011;27025;51.986;5.984;2023-08-08T09:18:18;3.92;;;1.40;;
18378;SDS011;27025;51.986;5.984;2023-08-08T09:20:50;2.20;;;1.20;;
18378;SDS011;27025;51.986;5.984;2023-08-08T09:23:16;2.58;;;1.20;;
18378;SDS011;27025;51.986;5.984;2023-08-08T09:25:42;2.95;;;1.13;;
18378;SDS011;27025;51.986;5.984;2023-08-08T09:28:08;3.40;;;1.20;;
18378;SDS011;27025;51.986;5.984;2023-08-08T09:30:35;2.97;;;1.13;;
18378;SDS011;27025;51.986;5.984;2023-08-08T09:33:01;2.28;;;1.15;;
18378;SDS011;27025;51.986;5.984;2023-08-08T09:35:30;4.50;;;1.30;;
18378;SDS011;27025;51.986;5.984;2023-08-08T09:37:56;2.35;;;1.10;;
18378;SDS011;27025;51.986;5.984;2023-08-08T09:40:22;2.75;;;1.30;;
18378;SDS011;27025;51.986;5.984;2023-08-08T09:42:51;2.35;;;1.10;;
18378;SDS011;27025;51.986;5.984;2023-08-08T09:45:17;1.42;;;1.02;;
18378;SDS011;27025;51.986;5.984;2023-08-08T09:47:43;4.10;;;1.10;;
18378;SDS011;27025;51.986;5.984;2023-08-08T09:50:09;2.72;;;1.10;;
18378;SDS011;27025;51.986;5.984;2023-08-08T09:52:35;2.13;;;1.10;;
18378;SDS011;27025;51.986;5.984;2023-08-08T09:55:05;2.92;;;1.10;;
18378;SDS011;27025;51.986;5.984;2023-08-08T09:57:31;3.42;;;1.20;;
18378;SDS011;27025;51.986;5.984;2023-08-08T09:59:58;1.73;;;1.10;;
18378;SDS011;27025;51.986;5.984;2023-08-08T10:02:24;3.53;;;1.13;;
18378;SDS011;27025;51.986;5.984;2023-08-08T10:04:50;3.65;;;1.10;;
18378;SDS011;27025;51.986;5.984;2023-08-08T10:07:18;2.35;;;1.20;;
18378;SDS011;27025;51.986;5.984;2023-08-08T10:09:44;1.50;;;1.07;;
18378;SDS011;27025;51.986;5.984;2023-08-08T10:12:11;2.70;;;1.13;;
18378;SDS011;27025;51.986;5.984;2023-08-08T10:14:41;1.63;;;1.17;;
18378;SDS011;27025;51.986;5.984;2023-08-08T10:17:07;2.90;;;1.10;;
18378;SDS011;27025;51.986;5.984;2023-08-08T10:19:33;2.07;;;1.20;;
18378;SDS011;27025;51.986;5.984;2023-08-08T10:22:04;2.03;;;1.27;;
18378;SDS011;27025;51.986;5.984;2023-08-08T10:24:34;3.30;;;1.20;;
18378;SDS011;27025;51.986;5.984;2023-08-08T10:27:01;2.03;;;1.20;;
18378;SDS011;27025;51.986;5.984;2023-08-08T10:29:28;1.90;;;1.10;;
18378;SDS011;27025;51.986;5.984;2023-08-08T10:32:03;2.33;;;1.10;;
18378;SDS011;27025;51.986;5.984;2023-08-08T10:34:40;3.38;;;1.15;;
18378;SDS011;27025;51.986;5.984;2023-08-08T10:37:13;2.65;;;1.20;;
18378;SDS011;27025;51.986;5.984;2023-08-08T10:39:59;3.87;;;1.00;;
18378;SDS011;27025;51.986;5.984;2023-08-08T10:42:26;1.93;;;0.93;;
18378;SDS011;27025;51.986;5.984;2023-08-08T10:44:56;2.08;;;1.10;;
18378;SDS011;27025;51.986;5.984;2023-08-08T10:47:23;3.53;;;1.20;;
18378;SDS011;27025;51.986;5.984;2023-08-08T10:49:59;1.97;;;1.10;;
18378;SDS011;27025;51.986;5.984;2023-08-08T10:52:29;2.78;;;1.10;;
18378;SDS011;27025;51.986;5.984;2023-08-08T10:54:55;2.30;;;1.20;;
18378;SDS011;27025;51.986;5.984;2023-08-08T10:57:24;1.77;;;1.10;;
18378;SDS011;27025;51.986;5.984;2023-08-08T10:59:51;2.08;;;1.20;;
18378;SDS011;27025;51.986;5.984;2023-08-08T11:02:19;2.55;;;1.30;;
18378;SDS011;27025;51.986;5.984;2023-08-08T11:04:45;3.92;;;1.52;;
18378;SDS011;27025;51.986;5.984;2023-08-08T11:07:11;2.58;;;1.17;;
18378;SDS011;27025;51.986;5.984;2023-08-08T11:09:39;3.28;;;1.10;;
18378;SDS011;27025;51.986;5.984;2023-08-08T11:12:12;2.00;;;1.10;;
18378;SDS011;27025;51.986;5.984;2023-08-08T11:14:38;1.57;;;1.17;;
18378;SDS011;27025;51.986;5.984;2023-08-08T11:17:04;2.47;;;1.30;;
18378;SDS011;27025;51.986;5.984;2023-08-08T11:19:30;3.58;;;1.40;;
18378;SDS011;27025;51.986;5.984;2023-08-08T11:21:57;3.13;;;1.42;;
18378;SDS011;27025;51.986;5.984;2023-08-08T11:24:23;3.10;;;1.30;;
18378;SDS011;27025;51.986;5.984;2023-08-08T11:26:49;2.47;;;1.33;;
18378;SDS011;27025;51.986;5.984;2023-08-08T11:29:16;3.13;;;1.55;;
18378;SDS011;27025;51.986;5.984;2023-08-08T11:31:42;2.28;;;1.40;;
18378;SDS011;27025;51.986;5.984;2023-08-08T11:34:08;3.38;;;1.50;;
18378;SDS011;27025;51.986;5.984;2023-08-08T11:36:37;5.37;;;1.57;;
18378;SDS011;27025;51.986;5.984;2023-08-08T11:39:04;2.43;;;1.20;;
18378;SDS011;27025;51.986;5.984;2023-08-08T11:41:33;2.53;;;1.30;;
18378;SDS011;27025;51.986;5.984;2023-08-08T11:44:00;3.05;;;1.40;;
18378;SDS011;27025;51.986;5.984;2023-08-08T11:46:27;2.42;;;1.13;;
18378;SDS011;27025;51.986;5.984;2023-08-08T11:48:53;3.67;;;1.30;;
18378;SDS011;27025;51.986;5.984;2023-08-08T11:51:19;3.28;;;1.50;;
18378;SDS011;27025;51.986;5.984;2023-08-08T11:53:48;3.55;;;1.40;;
18378;SDS011;27025;51.986;5.984;2023-08-08T11:56:16;2.00;;;1.40;;
18378;SDS011;27025;51.986;5.984;2023-08-08T11:58:42;4.17;;;1.60;;
18378;SDS011;27025;51.986;5.984;2023-08-08T12:01:08;3.87;;;1.50;;
18378;SDS011;27025;51.986;5.984;2023-08-08T12:03:35;3.30;;;1.40;;
18378;SDS011;27025;51.986;5.984;2023-08-08T12:06:10;2.20;;;1.40;;
18378;SDS011;27025;51.986;5.984;2023-08-08T12:08:37;3.60;;;1.48;;
18378;SDS011;27025;51.986;5.984;2023-08-08T12:11:03;3.00;;;1.50;;
18378;SDS011;27025;51.986;5.984;2023-08-08T12:13:30;2.33;;;1.40;;
18378;SDS011;27025;51.986;5.984;2023-08-08T12:15:58;2.42;;;1.30;;
18378;SDS011;27025;51.986;5.984;2023-08-08T12:18:24;2.30;;;1.40;;
18378;SDS011;27025;51.986;5.984;2023-08-08T12:20:50;3.50;;;1.50;;
18378;SDS011;27025;51.986;5.984;2023-08-08T12:23:16;3.30;;;1.30;;
18378;SDS011;27025;51.986;5.984;2023-08-08T12:25:42;2.60;;;1.43;;
18378;SDS011;27025;51.986;5.984;2023-08-08T12:28:08;3.42;;;1.40;;
18378;SDS011;27025;51.986;5.984;2023-08-08T12:30:35;3.80;;;1.40;;
18378;SDS011;27025;51.986;5.984;2023-08-08T12:33:01;2.95;;;1.30;;
18378;SDS011;27025;51.986;5.984;2023-08-08T12:35:27;3.77;;;1.43;;
18378;SDS011;27025;51.986;5.984;2023-08-08T12:37:53;1.67;;;1.30;;
18378;SDS011;27025;51.986;5.984;2023-08-08T12:40:19;2.60;;;1.60;;
18378;SDS011;27025;51.986;5.984;2023-08-08T12:42:45;3.47;;;1.90;;
18378;SDS011;27025;51.986;5.984;2023-08-08T12:45:12;3.30;;;1.50;;
18378;SDS011;27025;51.986;5.984;2023-08-08T12:47:39;3.67;;;1.50;;
18378;SDS011;27025;51.986;5.984;2023-08-08T12:50:05;1.48;;;1.25;;
18378;SDS011;27025;51.986;5.984;2023-08-08T12:52:32;3.53;;;1.60;;
18378;SDS011;27025;51.986;5.984;2023-08-08T12:54:58;2.50;;;1.40;;
18378;SDS011;27025;51.986;5.984;2023-08-08T12:57:25;2.92;;;1.60;;
18378;SDS011;27025;51.986;5.984;2023-08-08T12:59:51;2.80;;;1.40;;
18378;SDS011;27025;51.986;5.984;2023-08-08T13:02:17;3.30;;;1.50;;
18378;SDS011;27025;51.986;5.984;2023-08-08T13:04:43;4.68;;;1.50;;
18378;SDS011;27025;51.986;5.984;2023-08-08T13:07:09;2.50;;;1.50;;
18378;SDS011;27025;51.986;5.984;2023-08-08T13:09:35;2.57;;;1.50;;
18378;SDS011;27025;51.986;5.984;2023-08-08T13:12:02;3.17;;;1.40;;
18378;SDS011;27025;51.986;5.984;2023-08-08T13:14:28;2.10;;;1.33;;
18378;SDS011;27025;51.986;5.984;2023-08-08T13:16:54;2.63;;;1.48;;
18378;SDS011;27025;51.986;5.984;2023-08-08T13:19:20;3.97;;;1.45;;
18378;SDS011;27025;51.986;5.984;2023-08-08T13:21:49;3.80;;;1.70;;
18378;SDS011;27025;51.986;5.984;2023-08-08T13:24:16;1.90;;;1.40;;
18378;SDS011;27025;51.986;5.984;2023-08-08T13:26:42;2.97;;;1.60;;
18378;SDS011;27025;51.986;5.984;2023-08-08T13:29:09;3.47;;;1.50;;
18378;SDS011;27025;51.986;5.984;2023-08-08T13:31:35;3.47;;;1.58;;
18378;SDS011;27025;51.986;5.984;2023-08-08T13:34:01;3.45;;;1.40;;
18378;SDS011;27025;51.986;5.984;2023-08-08T13:36:27;2.53;;;1.60;;
18378;SDS011;27025;51.986;5.984;2023-08-08T13:38:53;4.05;;;1.52;;
18378;SDS011;27025;51.986;5.984;2023-08-08T13:41:19;3.35;;;1.58;;
18378;SDS011;27025;51.986;5.984;2023-08-08T13:43:45;3.25;;;1.50;;
18378;SDS011;27025;51.986;5.984;2023-08-08T13:46:11;2.90;;;1.70;;
18378;SDS011;27025;51.986;5.984;2023-08-08T13:48:37;3.10;;;1.60;;
18378;SDS011;27025;51.986;5.984;2023-08-08T13:51:03;3.17;;;1.45;;
18378;SDS011;27025;51.986;5.984;2023-08-08T13:53:29;3.55;;;1.60;;
18378;SDS011;27025;51.986;5.984;2023-08-08T13:55:55;2.33;;;1.40;;
18378;SDS011;27025;51.986;5.984;2023-08-08T13:58:21;4.28;;;1.40;;
18378;SDS011;27025;51.986;5.984;2023-08-08T14:00:48;3.25;;;1.50;;
18378;SDS011;27025;51.986;5.984;2023-08-08T14:03:14;2.40;;;1.57;;
18378;SDS011;27025;51.986;5.984;2023-08-08T14:05:40;3.72;;;1.60;;
18378;SDS011;27025;51.986;5.984;2023-08-08T14:08:06;2.60;;;1.65;;
18378;SDS011;27025;51.986;5.984;2023-08-08T14:10:32;3.95;;;1.90;;
18378;SDS011;27025;51.986;5.984;2023-08-08T14:12:58;3.80;;;2.00;;
18378;SDS011;27025;51.986;5.984;2023-08-08T14:15:24;3.00;;;1.85;;
18378;SDS011;27025;51.986;5.984;2023-08-08T14:17:50;3.23;;;1.83;;
18378;SDS011;27025;51.986;5.984;2023-08-08T14:20:17;4.63;;;1.80;;
18378;SDS011;27025;51.986;5.984;2023-08-08T14:22:44;3.03;;;1.70;;
18378;SDS011;27025;51.986;5.984;2023-08-08T14:25:13;3.65;;;1.63;;
18378;SDS011;27025;51.986;5.984;2023-08-08T14:27:39;3.03;;;1.60;;
18378;SDS011;27025;51.986;5.984;2023-08-08T14:30:06;2.53;;;1.53;;
18378;SDS011;27025;51.986;5.984;2023-08-08T14:32:32;3.00;;;1.55;;
18378;SDS011;27025;51.986;5.984;2023-08-08T14:34:58;3.80;;;1.70;;
18378;SDS011;27025;51.986;5.984;2023-08-08T14:37:24;3.63;;;1.60;;
18378;SDS011;27025;51.986;5.984;2023-08-08T14:39:50;3.83;;;1.43;;